createdAt,value
2023-04-15T00:01:53.724Z,8.45
2023-04-15T00:04:21.834Z,8.50
2023-04-15T00:06:53.627Z,8.47
2023-04-15T00:09:22.250Z,8.55
2023-04-15T00:11:51.178Z,8.53
2023-04-15T00:14:18.457Z,8.41
2023-04-15T00:16:45.795Z,8.56
2023-04-15T00:19:13.122Z,8.64
2023-04-15T00:21:40.594Z,8.74
2023-04-15T00:24:07.854Z,8.45
2023-04-15T00:26:36.594Z,8.42
2023-04-15T00:29:03.860Z,8.47
2023-04-15T00:31:31.361Z,8.30
2023-04-15T00:33:58.746Z,8.28
2023-04-15T00:36:26.270Z,8.62
2023-04-15T00:38:54.001Z,8.45
2023-04-15T00:41:22.961Z,8.45
2023-04-15T00:43:51.554Z,8.48
2023-04-15T00:46:20.681Z,8.36
2023-04-15T00:48:48.759Z,8.54
2023-04-15T00:51:16.001Z,8.50
2023-04-15T00:53:43.683Z,8.61
2023-04-15T00:56:10.919Z,8.62
2023-04-15T00:58:38.204Z,8.47
2023-04-15T01:01:06.883Z,8.29
2023-04-15T01:03:34.616Z,8.56
2023-04-15T01:06:03.904Z,8.50
2023-04-15T01:08:31.975Z,8.42
2023-04-15T01:10:59.578Z,8.45
2023-04-15T01:13:27.020Z,8.51
2023-04-15T01:15:54.564Z,8.46
2023-04-15T01:18:23.840Z,8.46
2023-04-15T01:20:51.115Z,8.44
2023-04-15T01:23:18.480Z,8.60
2023-04-15T01:25:47.892Z,8.35
2023-04-15T01:28:15.154Z,8.32
2023-04-15T01:30:42.920Z,8.33
2023-04-15T01:33:10.201Z,8.33
2023-04-15T01:35:37.522Z,8.27
2023-04-15T01:38:07.322Z,8.33
2023-04-15T01:40:34.988Z,8.25
2023-04-15T01:43:03.763Z,8.37
2023-04-15T01:45:31.084Z,8.28
2023-04-15T01:47:58.426Z,8.40
2023-04-15T01:50:26.084Z,8.26
2023-04-15T01:52:53.457Z,8.38
2023-04-15T01:55:21.092Z,8.27
2023-04-15T01:57:48.340Z,8.25
2023-04-15T02:00:17.594Z,8.40
2023-04-15T02:02:45.020Z,8.47
2023-04-15T02:05:12.435Z,8.46
2023-04-15T02:07:39.676Z,8.39
2023-04-15T02:10:07.534Z,8.34
2023-04-15T02:12:34.789Z,8.43
2023-04-15T02:15:02.053Z,8.44
2023-04-15T02:17:31.598Z,8.62
2023-04-15T02:19:59.269Z,8.51
2023-04-15T02:22:26.567Z,8.47
2023-04-15T02:24:53.892Z,8.46
2023-04-15T02:27:22.452Z,8.39
2023-04-15T02:29:51.017Z,8.62
2023-04-15T02:32:18.639Z,8.48
2023-04-15T02:34:47.283Z,8.39
2023-04-15T02:37:15.159Z,8.39
2023-04-15T02:39:42.607Z,8.27
2023-04-15T02:42:09.872Z,8.37
2023-04-15T02:44:37.421Z,8.46
2023-04-15T02:47:06.956Z,8.49
2023-04-15T02:49:34.203Z,8.51
2023-04-15T02:52:03.070Z,8.66
2023-04-15T02:54:30.560Z,8.51
2023-04-15T02:56:58.034Z,8.47
2023-04-15T02:59:25.408Z,8.51
2023-04-15T03:01:52.881Z,8.39
2023-04-15T03:04:20.314Z,8.35
2023-04-15T03:06:47.621Z,8.50
2023-04-15T03:09:16.433Z,8.49
2023-04-15T03:11:43.746Z,8.50
2023-04-15T03:14:11.123Z,8.63
2023-04-15T03:16:38.390Z,8.53
2023-04-15T03:19:05.670Z,8.41
2023-04-15T03:21:33.046Z,8.58
2023-04-15T03:24:00.791Z,8.60
2023-04-15T03:26:29.959Z,8.55
2023-04-15T03:28:57.566Z,8.59
2023-04-15T03:31:24.912Z,8.72
2023-04-15T03:33:52.225Z,8.45
2023-04-15T03:36:19.560Z,8.39
2023-04-15T03:38:46.838Z,8.44
2023-04-15T03:41:14.238Z,8.42
2023-04-15T03:43:42.795Z,8.65
2023-04-15T03:46:10.122Z,8.58
2023-04-15T03:48:37.374Z,8.51
2023-04-15T03:51:04.694Z,8.48
2023-04-15T03:53:31.974Z,8.59
2023-04-15T03:55:59.210Z,8.64
2023-04-15T03:58:26.499Z,8.59
2023-04-15T04:00:55.727Z,8.63
2023-04-15T04:03:23.166Z,8.56
2023-04-15T04:05:50.922Z,8.46
2023-04-15T04:08:19.499Z,8.64
2023-04-15T04:10:46.736Z,8.65
2023-04-15T04:13:14.001Z,8.56
2023-04-15T04:15:41.288Z,8.44
2023-04-15T04:18:09.940Z,8.54
2023-04-15T04:20:37.247Z,8.43
2023-04-15T04:23:04.506Z,8.35
2023-04-15T04:25:32.131Z,8.59
2023-04-15T04:27:59.376Z,8.70
2023-04-15T04:30:26.618Z,8.50
2023-04-15T04:32:53.945Z,8.61
2023-04-15T04:35:22.855Z,8.65
2023-04-15T04:37:50.833Z,8.56
2023-04-15T04:40:18.243Z,8.69
2023-04-15T04:42:45.969Z,8.53
2023-04-15T04:45:13.359Z,8.56
2023-04-15T04:47:40.670Z,8.47
2023-04-15T04:50:09.091Z,8.68
2023-04-15T04:52:37.757Z,8.81
2023-04-15T04:55:05.355Z,8.76
2023-04-15T04:57:32.651Z,8.81
2023-04-15T04:59:59.911Z,8.67
2023-04-15T05:02:27.619Z,8.83
2023-04-15T05:04:55.372Z,8.94
2023-04-15T05:07:22.682Z,8.89
2023-04-15T05:09:51.461Z,8.95
2023-04-15T05:12:18.763Z,8.97
2023-04-15T05:14:46.694Z,9.07
2023-04-15T05:17:14.087Z,9.01
2023-04-15T05:19:41.332Z,8.91
2023-04-15T05:22:08.760Z,9.07
2023-04-15T05:24:36.426Z,9.04
2023-04-15T05:27:05.161Z,8.96
2023-04-15T05:29:32.755Z,9.03
2023-04-15T05:32:00.046Z,9.10
2023-04-15T05:34:27.340Z,9.05
2023-04-15T05:36:54.605Z,9.17
2023-04-15T05:39:21.966Z,9.24
2023-04-15T05:41:49.283Z,9.23
2023-04-15T05:44:17.836Z,9.26
2023-04-15T05:46:45.094Z,9.26
2023-04-15T05:49:12.345Z,9.27
2023-04-15T05:51:39.681Z,9.36
2023-04-15T05:54:07.004Z,9.29
2023-04-15T05:56:34.272Z,9.36
2023-04-15T05:59:01.847Z,9.35
2023-04-15T06:01:30.696Z,9.35
2023-04-15T06:03:58.379Z,9.21
2023-04-15T06:06:25.685Z,9.30
2023-04-15T06:08:52.979Z,9.37
2023-04-15T06:11:21.389Z,9.36
2023-04-15T06:13:48.773Z,9.36
2023-04-15T06:16:16.457Z,9.48
2023-04-15T06:18:45.283Z,9.48
2023-04-15T06:21:12.698Z,9.39
2023-04-15T06:23:41.101Z,9.49
2023-04-15T06:26:08.463Z,9.53
2023-04-15T06:28:35.918Z,9.55
2023-04-15T06:31:03.341Z,9.68
2023-04-15T06:33:30.669Z,9.70
2023-04-15T06:35:59.297Z,9.73
2023-04-15T06:38:26.611Z,9.72
2023-04-15T06:40:54.070Z,9.76
2023-04-15T06:43:21.444Z,9.71
2023-04-15T06:45:48.761Z,9.82
2023-04-15T06:48:16.231Z,9.62
2023-04-15T06:50:43.599Z,9.81
2023-04-15T06:53:12.380Z,9.94
2023-04-15T06:55:40.229Z,9.99
2023-04-15T06:58:07.527Z,9.98
2023-04-15T07:00:34.889Z,9.98
2023-04-15T07:03:03.632Z,10.04
2023-04-15T07:05:32.469Z,10.07
2023-04-15T07:08:00.406Z,10.18
2023-04-15T07:10:29.070Z,10.27
2023-04-15T07:12:56.464Z,10.18
2023-04-15T07:15:24.182Z,10.21
2023-04-15T10:54:36.202Z,22.47
2023-04-15T10:57:15.626Z,22.54
2023-04-15T11:00:04.742Z,22.62
2023-04-15T11:04:57.445Z,22.73
2023-04-15T11:07:38.465Z,22.96
2023-04-15T11:13:51.322Z,19.13
2023-04-15T11:16:19.249Z,14.07
2023-04-15T11:18:55.607Z,13.52
2023-04-15T11:21:26.931Z,13.53
2023-04-15T11:23:54.343Z,12.26
2023-04-15T11:26:27.692Z,11.99
2023-04-15T11:28:56.956Z,12.07
2023-04-15T11:31:28.625Z,11.56
2023-04-15T11:33:58.945Z,11.22
2023-04-15T11:36:29.799Z,11.13
2023-04-15T11:38:59.252Z,11.22
2023-04-15T11:41:26.836Z,11.26
2023-04-15T11:43:55.572Z,11.14
2023-04-15T11:46:29.613Z,11.23
2023-04-15T11:48:56.979Z,11.42
2023-04-15T11:51:24.371Z,10.94
2023-04-15T11:53:54.560Z,10.98
2023-04-15T11:56:24.261Z,11.00
2023-04-15T11:58:54.132Z,11.01
2023-04-15T12:01:32.209Z,10.47
2023-04-15T12:04:01.514Z,10.79
2023-04-15T12:06:34.902Z,11.17
2023-04-15T12:09:08.539Z,11.12
2023-04-15T12:11:41.592Z,10.43
2023-04-15T12:14:28.246Z,10.77
2023-04-15T12:17:00.207Z,10.99
2023-04-15T12:19:30.111Z,11.18
2023-04-15T12:22:01.152Z,10.80
2023-04-15T12:24:29.313Z,11.15
2023-04-15T12:26:58.151Z,11.08
2023-04-15T12:29:28.602Z,11.12
2023-04-15T12:31:59.151Z,10.91
2023-04-15T12:34:31.645Z,11.04
2023-04-15T12:37:01.068Z,11.05
2023-04-15T12:39:31.149Z,11.06
2023-04-15T12:42:00.081Z,11.10
2023-04-15T12:44:27.902Z,11.19
2023-04-15T12:46:57.541Z,11.48
2023-04-15T12:49:25.470Z,11.00
2023-04-15T12:51:54.784Z,11.19
2023-04-15T12:54:22.507Z,11.50
2023-04-15T12:56:51.695Z,11.60
2023-04-15T12:59:19.445Z,11.58
2023-04-15T13:01:47.798Z,11.72
2023-04-15T13:04:17.451Z,11.77
2023-04-15T13:06:45.013Z,11.42
2023-04-15T13:09:12.411Z,11.52
2023-04-15T13:11:39.802Z,11.86
2023-04-15T13:14:09.606Z,11.96
2023-04-15T13:16:37.192Z,11.60
2023-04-15T13:19:05.460Z,11.71
2023-04-15T13:21:35.751Z,11.90
2023-04-15T13:24:04.248Z,12.24
2023-04-15T13:26:32.279Z,12.48
2023-04-15T13:29:00.556Z,12.75
2023-04-15T13:31:28.277Z,12.63
2023-04-15T13:33:55.760Z,12.86
2023-04-15T13:36:23.191Z,13.04
2023-04-15T13:38:51.949Z,12.25
2023-04-15T13:41:20.036Z,12.48
2023-04-15T13:43:47.454Z,12.46
2023-04-15T13:46:15.061Z,12.73
2023-04-15T13:48:42.682Z,12.90
2023-04-15T13:51:10.357Z,12.74
2023-04-15T13:53:39.404Z,12.61
2023-04-15T13:56:09.283Z,12.66
2023-04-15T13:58:37.397Z,12.65
2023-04-15T14:01:06.778Z,12.33
2023-04-15T14:03:35.857Z,11.90
2023-04-15T14:06:03.779Z,11.69
2023-04-15T14:08:31.305Z,11.34
2023-04-15T14:10:58.748Z,11.34
2023-04-15T14:13:27.430Z,11.43
2023-04-15T14:15:54.825Z,12.00
2023-04-15T14:18:22.215Z,12.50
2023-04-15T14:20:49.593Z,12.81
2023-04-15T14:23:17.069Z,12.33
2023-04-15T14:25:46.696Z,11.91
2023-04-15T14:28:15.720Z,12.43
2023-04-15T14:30:46.394Z,12.62
2023-04-15T14:33:13.914Z,12.54
2023-04-15T14:35:41.313Z,12.51
2023-04-15T14:38:11.096Z,12.38
2023-04-15T14:40:38.948Z,12.31
2023-04-15T14:43:06.320Z,12.75
2023-04-15T14:45:33.761Z,12.41
2023-04-15T14:48:02.690Z,12.27
2023-04-15T14:50:30.261Z,12.58
2023-04-15T14:52:57.631Z,12.55
2023-04-15T14:55:25.011Z,12.30
2023-04-15T14:57:52.389Z,12.16
2023-04-15T15:00:19.930Z,12.27
2023-04-15T15:02:48.101Z,12.59
2023-04-15T15:05:17.014Z,12.96
2023-04-15T15:07:44.490Z,12.89
2023-04-15T15:10:11.906Z,13.20
2023-04-15T15:12:39.324Z,12.73
2023-04-15T15:15:19.544Z,12.51
2023-04-15T15:17:58.464Z,12.80
2023-04-15T15:20:28.998Z,12.89
2023-04-15T15:22:56.417Z,12.59
2023-04-15T15:25:23.896Z,12.71
2023-04-15T15:27:53.374Z,12.32
2023-04-15T15:30:20.875Z,12.45
2023-04-15T15:32:48.327Z,12.56
2023-04-15T15:35:16.261Z,12.50
2023-04-15T15:37:46.636Z,12.34
2023-04-15T15:40:14.400Z,12.44
2023-04-15T15:42:42.767Z,12.61
2023-04-15T15:45:10.921Z,12.26
2023-04-15T15:47:38.508Z,12.05
2023-04-15T15:50:07.599Z,11.84
2023-04-15T15:52:35.119Z,11.88
2023-04-15T15:55:05.367Z,11.82
2023-04-15T15:57:32.821Z,12.01
2023-04-15T16:00:10.513Z,12.20
2023-04-15T16:03:05.137Z,12.26
2023-04-15T16:05:27.113Z,12.34
2023-04-15T16:07:56.368Z,12.24
2023-04-15T16:10:25.268Z,12.35
2023-04-15T16:12:52.707Z,12.13
2023-04-15T16:15:20.294Z,12.21
2023-04-15T16:17:47.710Z,11.98
2023-04-15T16:20:15.149Z,12.02
2023-04-15T16:22:42.570Z,12.08
2023-04-15T16:25:10.566Z,12.02
2023-04-15T16:27:54.638Z,11.65
2023-04-15T16:30:27.015Z,11.68
2023-04-15T16:32:54.412Z,11.70
2023-04-15T16:35:21.832Z,11.91
2023-04-15T16:37:49.240Z,11.81
2023-04-15T16:40:16.742Z,11.90
2023-04-15T16:42:45.514Z,11.73
2023-04-15T16:45:12.983Z,11.81
2023-04-15T16:47:42.384Z,11.82
2023-04-15T16:50:10.555Z,11.64
2023-04-15T16:52:37.954Z,11.64
2023-04-15T16:55:05.999Z,11.58
2023-04-15T16:57:50.633Z,11.42
2023-04-15T17:00:22.175Z,11.50
2023-04-15T17:02:49.755Z,11.35
2023-04-15T17:05:17.353Z,11.32
2023-04-15T17:07:44.806Z,11.34
2023-04-15T17:10:13.709Z,11.44
2023-04-15T17:12:41.420Z,11.48
2023-04-15T17:15:09.975Z,11.33
2023-04-15T17:17:40.384Z,11.33
2023-04-15T17:20:08.272Z,11.35
2023-04-15T17:22:35.760Z,11.42
2023-04-15T17:25:06.616Z,11.49
2023-04-15T17:27:33.987Z,11.48
2023-04-15T17:30:01.402Z,11.40
2023-04-15T17:32:34.356Z,11.35
2023-04-15T17:35:06.219Z,11.33
2023-04-15T17:37:33.714Z,11.29
2023-04-15T17:40:01.233Z,11.25
2023-04-15T17:42:28.648Z,11.16
2023-04-15T17:44:56.049Z,11.18
2023-04-15T17:47:23.440Z,11.08
2023-04-15T17:49:50.900Z,10.88
2023-04-15T17:52:19.593Z,10.78
2023-04-15T17:54:47.098Z,10.90
2023-04-15T17:57:14.542Z,10.86
2023-04-15T17:59:43.995Z,10.72
2023-04-15T18:02:11.881Z,10.72
2023-04-15T18:04:39.857Z,10.82
2023-04-15T18:07:07.410Z,10.88
2023-04-15T18:09:36.151Z,10.80
2023-04-15T18:12:04.463Z,10.82
2023-04-15T18:14:34.706Z,10.83
2023-04-15T18:17:02.823Z,10.79
2023-04-15T18:19:31.624Z,10.78
2023-04-15T18:21:59.947Z,10.72
2023-04-15T18:24:27.545Z,10.60
2023-04-15T18:26:56.361Z,10.64
2023-04-15T18:29:23.966Z,10.55
2023-04-15T18:31:51.482Z,10.58
2023-04-15T18:34:18.935Z,10.56
2023-04-15T18:36:46.789Z,10.38
2023-04-15T18:39:14.181Z,10.22
2023-04-15T18:41:41.558Z,10.25
2023-04-15T18:44:10.267Z,10.26
2023-04-15T18:46:37.707Z,10.24
2023-04-15T18:49:05.334Z,10.21
2023-04-15T18:51:33.290Z,10.16
2023-04-15T18:54:00.762Z,10.14
2023-04-15T18:56:28.219Z,10.03
2023-04-15T18:59:09.240Z,9.68
2023-04-15T19:01:44.417Z,9.57
2023-04-15T19:04:12.347Z,9.65
2023-04-15T19:06:39.801Z,9.70
2023-04-15T19:09:07.298Z,9.73
2023-04-15T19:11:34.934Z,9.78
2023-04-15T19:14:02.318Z,9.85
2023-04-15T19:16:29.736Z,9.86
2023-04-15T19:18:58.486Z,9.78
2023-04-15T19:21:26.080Z,9.63
2023-04-15T19:23:53.513Z,9.50
2023-04-15T19:26:20.897Z,9.37
2023-04-15T19:28:48.271Z,9.43
2023-04-15T19:31:16.005Z,9.47
2023-04-15T19:33:43.423Z,9.45
2023-04-15T19:36:12.163Z,9.40
2023-04-15T19:38:39.534Z,9.39
2023-04-15T19:41:06.957Z,9.41
2023-04-15T19:43:34.340Z,9.36
2023-04-15T19:46:01.796Z,9.33
2023-04-15T19:48:29.451Z,9.26
2023-04-15T19:50:57.820Z,9.23
2023-04-15T19:53:26.581Z,9.17
2023-04-15T19:55:55.309Z,9.11
2023-04-15T19:58:22.727Z,9.09
2023-04-15T20:00:50.212Z,9.10
2023-04-15T20:03:18.824Z,9.06
2023-04-15T20:05:46.309Z,9.03
2023-04-15T20:08:13.729Z,8.91
2023-04-15T20:10:42.516Z,8.88
2023-04-15T20:13:09.900Z,8.84
2023-04-15T20:15:37.462Z,8.81
2023-04-15T20:18:05.088Z,8.68
2023-04-15T20:20:35.095Z,8.55
2023-04-15T20:23:02.457Z,8.55
2023-04-15T20:25:29.935Z,8.54
2023-04-15T20:28:00.873Z,8.50
2023-04-15T20:30:29.048Z,8.49
2023-04-15T20:32:56.714Z,8.38
2023-04-15T20:35:27.887Z,8.40
2023-04-15T20:37:55.414Z,8.42
2023-04-15T20:40:23.002Z,8.43
2023-04-15T20:42:50.841Z,8.43
2023-04-15T20:45:19.582Z,8.45
2023-04-15T20:47:46.998Z,8.47
2023-04-15T20:50:14.440Z,8.51
2023-04-15T20:52:41.884Z,8.52
2023-04-15T20:55:09.846Z,8.53
2023-04-15T20:57:37.266Z,8.54
2023-04-15T21:00:05.667Z,8.52
2023-04-15T21:02:34.526Z,8.56
2023-04-15T21:05:01.959Z,8.46
2023-04-15T21:07:29.451Z,8.43
2023-04-15T21:09:57.034Z,8.41
2023-04-15T21:12:24.459Z,8.34
2023-04-15T21:14:51.830Z,8.35
2023-04-15T21:17:19.323Z,8.40
2023-04-15T21:19:48.046Z,8.46
2023-04-15T21:22:15.431Z,8.46
2023-04-15T21:24:42.793Z,8.36
2023-04-15T21:27:10.530Z,8.32
2023-04-15T21:29:40.185Z,8.31
2023-04-15T21:32:07.708Z,8.27
2023-04-15T21:34:35.376Z,8.26
2023-04-15T21:37:04.222Z,8.22
2023-04-15T21:39:31.626Z,8.27
2023-04-15T21:41:59.379Z,8.33
2023-04-15T21:44:26.789Z,8.37
2023-04-15T21:46:54.307Z,8.39
2023-04-15T21:49:22.715Z,8.40
2023-04-15T21:51:51.654Z,8.38
2023-04-15T21:54:22.286Z,8.14
2023-04-15T21:56:50.794Z,8.08
2023-04-15T21:59:18.164Z,8.16
2023-04-15T22:01:45.662Z,8.17
2023-04-15T22:04:13.245Z,8.26
2023-04-15T22:06:40.832Z,8.31
2023-04-15T22:09:08.181Z,8.29
2023-04-15T22:11:37.183Z,8.25
2023-04-15T22:14:05.278Z,8.23
2023-04-15T22:16:32.725Z,8.21
2023-04-15T22:19:00.293Z,8.23
2023-04-15T22:21:27.755Z,8.24
2023-04-15T22:24:33.584Z,8.26
2023-04-15T22:26:44.044Z,8.23
2023-04-15T22:29:11.546Z,8.11
2023-04-15T22:31:38.988Z,8.15
2023-04-15T22:34:06.510Z,8.20
2023-04-15T22:36:34.028Z,8.25
2023-04-15T22:39:01.431Z,8.18
2023-04-15T22:41:28.916Z,8.19
2023-04-15T22:43:57.600Z,8.20
2023-04-15T22:46:25.233Z,8.22
2023-04-15T22:48:54.056Z,8.26
2023-04-15T22:51:26.892Z,8.18
2023-04-15T22:53:54.665Z,8.14
2023-04-15T22:56:22.634Z,8.18
2023-04-15T22:58:51.000Z,8.21
2023-04-15T23:01:20.784Z,8.23
2023-04-15T23:04:02.527Z,8.21
2023-04-15T23:06:32.686Z,8.19
2023-04-15T23:09:00.148Z,8.17
2023-04-15T23:11:27.512Z,8.17
2023-04-15T23:13:54.884Z,8.16
2023-04-15T23:16:23.787Z,8.08
2023-04-15T23:18:51.224Z,7.98
2023-04-15T23:21:18.585Z,8.10
2023-04-15T23:23:46.022Z,8.16
2023-04-15T23:26:13.686Z,8.17
2023-04-15T23:28:41.126Z,7.98
2023-04-15T23:31:08.502Z,7.98
2023-04-15T23:33:38.088Z,7.96
2023-04-15T23:36:06.346Z,7.96
2023-04-15T23:38:33.738Z,8.01
2023-04-15T23:41:01.097Z,8.00
2023-04-15T23:43:28.522Z,7.99
2023-04-15T23:45:56.044Z,7.96
2023-04-15T23:48:23.634Z,7.80
2023-04-15T23:50:52.372Z,7.72
2023-04-15T23:53:19.761Z,7.71
2023-04-15T23:55:47.227Z,7.63
2023-04-15T23:58:14.601Z,7.60
